Location name: Rte Butare/Ngozi(Akanyaru) | Identifier : 70010 | Type : Hydrology Station

At the border between Burundi and Rwanda. Under construction

  • Parameter : Stage
  • Unit : m
  • Start time : 1971-01-01T08:00:00.0000000+02:00
  • End time : 2014-08-11T00:00:00.0000000+02:00
  • Parameter : Stage
  • Unit : m
  • Start time : 2016-03-01T08:00:00.0000000+02:00
  • End time : 2017-03-31T17:00:00.0000000+02:00
Date Parameter Unit Value
2023-08-22T09:00:00.0000000+02:00 Discharge m^3/s 17.79
2023-08-22T09:00:00.0000000+02:00 Stage m 2.17
1955-03-18T00:00:00.0000000+02:00 Discharge m^3/s 12.5
1955-03-18T00:00:00.0000000+02:00 Stage m 0.899999976
1955-08-30T00:00:00.0000000+02:00 Discharge m^3/s 7.739999771
1955-08-30T00:00:00.0000000+02:00 Stage m 0.810000002
1956-03-09T00:00:00.0000000+02:00 Discharge m^3/s 11.80000019
1956-03-09T00:00:00.0000000+02:00 Stage m 0.889999986
1956-04-17T00:00:00.0000000+02:00 Discharge m^3/s 21.21999931
1956-04-17T00:00:00.0000000+02:00 Stage m 1.070000052
1957-02-01T00:00:00.0000000+02:00 Discharge m^3/s 15.96000004
1957-02-01T00:00:00.0000000+02:00 Stage m 0.899999976
1957-08-29T00:00:00.0000000+02:00 Discharge m^3/s 16.04999924
1957-08-29T00:00:00.0000000+02:00 Stage m 0.819999993
1958-03-22T00:00:00.0000000+02:00 Discharge m^3/s 21.31999969
1958-03-22T00:00:00.0000000+02:00 Stage m 1.080000043
1958-06-24T00:00:00.0000000+02:00 Discharge m^3/s 14.32999992
1958-06-24T00:00:00.0000000+02:00 Stage m 0.850000024
1958-07-26T00:00:00.0000000+02:00 Discharge m^3/s 13.84000015
1958-07-26T00:00:00.0000000+02:00 Stage m 0.75999999
1958-10-22T00:00:00.0000000+02:00 Discharge m^3/s 11.97999954
1958-10-22T00:00:00.0000000+02:00 Stage m 0.850000024
1959-05-15T00:00:00.0000000+02:00 Discharge m^3/s 17.95999908
1959-05-15T00:00:00.0000000+02:00 Stage m 1.039999962
1959-07-11T00:00:00.0000000+02:00 Discharge m^3/s 12.52000046
1959-07-11T00:00:00.0000000+02:00 Stage m 0.660000026
1959-12-23T00:00:00.0000000+02:00 Discharge m^3/s 14.60999966
1959-12-23T00:00:00.0000000+02:00 Stage m 0.75
1960-06-24T00:00:00.0000000+02:00 Discharge m^3/s 13.14000034
1960-06-24T00:00:00.0000000+02:00 Stage m 0.75999999
1961-03-03T00:00:00.0000000+02:00 Discharge m^3/s 25.18000031
1961-03-03T00:00:00.0000000+02:00 Stage m 1.149999976
1963-03-23T00:00:00.0000000+02:00 Discharge m^3/s 23.57999992
1963-03-23T00:00:00.0000000+02:00 Stage m 1.230000019
1985-05-22T00:00:00.0000000+02:00 Discharge m^3/s 23.52000046
1985-05-22T00:00:00.0000000+02:00 Stage m 0.779999971
1985-06-19T00:00:00.0000000+02:00 Discharge m^3/s 17.14999962
1985-06-19T00:00:00.0000000+02:00 Stage m 0.620000005
1985-06-28T00:00:00.0000000+02:00 Discharge m^3/s 15.48999977
1985-06-28T00:00:00.0000000+02:00 Stage m 0.600000024
1985-07-17T00:00:00.0000000+02:00 Discharge m^3/s 9.670000076
1985-07-17T00:00:00.0000000+02:00 Stage m 0.5
1987-09-02T00:00:00.0000000+02:00 Discharge m^3/s 12.15999985
1987-09-02T00:00:00.0000000+02:00 Stage m 0.5
1988-04-11T00:00:00.0000000+02:00 Discharge m^3/s 54.40000153
1988-04-11T00:00:00.0000000+02:00 Stage m 1.299999952
1988-05-11T00:00:00.0000000+02:00 Discharge m^3/s 47.40000153
1988-05-11T00:00:00.0000000+02:00 Stage m 1.210000038
1991-07-24T00:00:00.0000000+02:00 Discharge m^3/s 13.39999962
1991-07-24T00:00:00.0000000+02:00 Stage m 0.50999999
2017-08-29T10:30:00.0000000+02:00 Discharge m^3/s 8.057
2017-10-03T11:00:00.0000000+02:00 Discharge m^3/s 7.86
2017-12-05T11:28:00.0000000+02:00 Discharge m^3/s 8.982
2018-05-24T11:00:00.0000000+02:00 Discharge m^3/s 52.878
2018-09-04T08:46:00.0000000+02:00 Discharge m^3/s 9.04
2018-12-18T10:06:00.0000000+02:00 Discharge m^3/s 12.4
2018-12-18T10:06:00.0000000+02:00 Stage m 1.15
2019-06-11T09:40:00.0000000+02:00 Discharge m^3/s 11.48
2019-06-11T09:40:00.0000000+02:00 Stage m 1.08
2020-10-27T09:48:00.0000000+02:00 Discharge m^3/s 50.292
2020-10-27T09:48:00.0000000+02:00 Stage m 1.43
2021-11-30T10:00:00.0000000+02:00 Discharge m^3/s 20.82